Time;durP1;ratioP1;P1;durP2;ratioP2;P2;SDS_P1;SDS_P2;PMS_P1;PMS_P2;Temp;Humidity;BMP_temperature;BMP_pressure;BME280_temperature;BME280_humidity;BME280_pressure;Samples;Min_cycle;Max_cycle;Signal;HPM_P1;HPM_P2
2021/05/06 00:02:01;;;;;;;7.10;3.73;;;7.30;99.90;;;;;;4395212;32;20213;-73
2021/05/06 00:32:12;;;;;;;7.33;2.50;;;7.30;99.90;;;;;;4392585;32;20320;-73
2021/05/06 00:34:39;;;;;;;4.37;2.20;;;7.30;99.90;;;;;;4392678;32;20148;-73
2021/05/06 00:37:05;;;;;;;4.03;2.30;;;7.30;99.90;;;;;;4392626;32;20154;-72
2021/05/06 00:39:39;;;;;;;7.13;2.27;;;7.30;99.90;;;;;;4392341;32;20213;-73
2021/05/06 01:01:36;;;;;;;5.97;2.53;;;7.10;99.90;;;;;;4395024;32;20168;-75
2021/05/06 01:09:42;;;;;;;7.10;2.90;;;6.90;99.90;;;;;;4393872;32;20548;-74
2021/05/06 01:12:08;;;;;;;9.43;3.10;;;6.90;99.90;;;;;;4381596;32;20471;-74
2021/05/06 01:14:34;;;;;;;5.83;2.80;;;6.90;99.90;;;;;;4394247;32;20155;-75
2021/05/06 01:17:02;;;;;;;4.40;2.80;;;6.80;99.90;;;;;;4394167;32;20243;-73
2021/05/06 01:19:28;;;;;;;4.67;2.97;;;6.80;99.90;;;;;;4394930;32;20183;-77
2021/05/06 01:21:56;;;;;;;5.13;2.70;;;6.80;99.90;;;;;;4400833;32;20159;-77
2021/05/06 01:24:23;;;;;;;4.60;2.50;;;6.80;99.90;;;;;;4393157;32;20208;-77
2021/05/06 01:29:57;;;;;;;6.33;2.57;;;6.80;99.90;;;;;;4346935;33;20434;-77
2021/05/06 01:32:36;;;;;;;5.80;2.60;;;6.80;99.90;;;;;;4348662;33;20161;-77
2021/05/06 01:35:07;;;;;;;3.30;1.97;;;6.80;99.90;;;;;;4347998;33;20167;-76
2021/05/06 01:43:00;;;;;;;3.37;1.80;;;6.90;99.90;;;;;;4347036;33;20212;-75
2021/05/06 01:50:41;;;;;;;3.97;1.70;;;6.80;99.90;;;;;;4346551;33;20492;-76
2021/05/06 01:58:42;;;;;;;3.13;1.47;;;6.90;99.90;;;;;;4348607;33;20188;-74
2021/05/06 02:01:09;;;;;;;2.60;1.70;;;6.90;99.90;;;;;;4348430;33;20169;-73
2021/05/06 02:03:35;;;;;;;4.63;1.60;;;7.00;99.90;;;;;;4346905;33;20146;-73
2021/05/06 02:06:03;;;;;;;7.77;1.90;;;7.00;99.90;;;;;;4393308;32;20153;-74
2021/05/06 02:08:30;;;;;;;3.13;1.63;;;7.00;99.90;;;;;;4412042;32;20163;-74
2021/05/06 02:11:00;;;;;;;2.23;1.50;;;7.00;99.90;;;;;;4412065;32;20158;-75
2021/05/06 02:13:27;;;;;;;2.43;1.53;;;7.00;99.90;;;;;;4412330;32;20382;-73
2021/05/06 02:15:57;;;;;;;2.83;1.60;;;7.00;99.90;;;;;;4413431;32;20171;-74
2021/05/06 02:18:24;;;;;;;3.70;1.90;;;7.00;99.90;;;;;;4411913;32;20195;-74
2021/05/06 02:20:51;;;;;;;3.20;1.60;;;7.10;99.90;;;;;;4411926;32;20170;-75
2021/05/06 02:23:18;;;;;;;2.10;1.53;;;7.10;99.90;;;;;;4411758;32;20198;-76
2021/05/06 02:25:46;;;;;;;3.53;1.60;;;7.10;99.90;;;;;;4411764;32;20171;-73
2021/05/06 02:28:13;;;;;;;3.00;1.50;;;7.10;99.90;;;;;;4411885;32;20200;-74
2021/05/06 02:30:40;;;;;;;5.37;2.10;;;7.00;99.90;;;;;;4410871;32;20228;-74
2021/05/06 02:33:08;;;;;;;4.70;2.30;;;7.00;99.90;;;;;;4411164;32;20518;-74
2021/05/06 02:35:37;;;;;;;4.17;2.23;;;6.90;99.90;;;;;;4412002;32;20162;-74
2021/05/06 02:38:06;;;;;;;3.63;1.90;;;6.80;99.90;;;;;;4411690;32;20147;-74
2021/05/06 02:40:33;;;;;;;2.43;1.80;;;6.80;99.90;;;;;;4411626;32;20437;-73
2021/05/06 02:43:00;;;;;;;3.77;1.80;;;6.80;99.90;;;;;;4411668;32;20197;-74
2021/05/06 02:45:28;;;;;;;5.20;2.00;;;6.70;99.90;;;;;;4412766;32;20140;-74
2021/05/06 02:47:54;;;;;;;2.60;1.80;;;6.70;99.90;;;;;;4413043;32;20152;-74
2021/05/06 02:50:23;;;;;;;5.27;2.10;;;6.60;99.90;;;;;;4411411;32;20188;-74
2021/05/06 02:58:04;;;;;;;4.43;2.03;;;6.50;99.90;;;;;;4411422;32;20454;-74
2021/05/06 03:03:15;;;;;;;4.27;2.00;;;6.40;99.90;;;;;;4410596;32;20186;-74
2021/05/06 03:05:42;;;;;;;6.97;1.87;;;6.40;99.90;;;;;;4412752;32;20505;-72
2021/05/06 03:08:30;;;;;;;4.43;1.87;;;6.40;99.90;;;;;;4411194;32;20496;-74
2021/05/06 03:24:27;;;;;;;5.20;1.70;;;6.40;99.90;;;;;;4411136;32;20406;-74
2021/05/06 03:26:55;;;;;;;4.23;1.50;;;6.40;99.90;;;;;;4411030;32;20169;-73
2021/05/06 03:29:30;;;;;;;4.73;1.40;;;6.40;99.90;;;;;;4411064;32;20187;-73
2021/05/06 03:32:10;;;;;;;5.30;2.93;;;6.40;99.90;;;;;;4412065;32;20217;-74
2021/05/06 04:16:10;;;;;;;4.33;1.83;;;6.40;99.90;;;;;;4410258;32;20150;-73
2021/05/06 04:18:37;;;;;;;4.30;1.80;;;6.50;99.90;;;;;;4410100;32;20215;-73
2021/05/06 04:29:48;;;;;;;5.93;1.80;;;6.60;99.90;;;;;;4411403;32;20169;-73
2021/05/06 04:37:27;;;;;;;6.97;2.10;;;6.60;99.90;;;;;;4411520;32;20172;-73
2021/05/06 05:06:29;;;;;;;6.37;2.10;;;6.80;99.90;;;;;;4347980;33;20520;-73
2021/05/06 05:11:57;;;;;;;5.20;2.20;;;6.90;99.90;;;;;;4347325;33;20521;-74
2021/05/06 05:20:02;;;;;;;4.63;1.80;;;6.90;99.40;;;;;;4394633;32;20187;-73
2021/05/06 05:25:25;;;;;;;7.00;2.00;;;7.00;98.50;;;;;;4409394;32;20152;-73
2021/05/06 05:27:55;;;;;;;7.70;2.00;;;7.00;98.10;;;;;;4409670;32;20190;-74
2021/05/06 05:30:24;;;;;;;8.73;2.00;;;7.10;98.30;;;;;;4409238;32;20153;-73
2021/05/06 05:33:05;;;;;;;6.07;1.80;;;7.10;98.60;;;;;;4409501;32;20177;-72
2021/05/06 05:35:52;;;;;;;7.37;1.90;;;7.10;98.00;;;;;;4410076;32;20146;-72
2021/05/06 05:38:36;;;;;;;7.03;1.77;;;7.20;98.20;;;;;;4409386;32;20173;-73
2021/05/06 05:41:36;;;;;;;4.20;1.97;;;7.10;97.20;;;;;;4410288;32;20168;-74
2021/05/06 05:54:49;;;;;;;5.87;1.83;;;7.40;95.70;;;;;;4409216;32;20476;-72
2021/05/06 05:57:15;;;;;;;5.50;2.10;;;7.50;95.80;;;;;;4410352;32;20169;-73
2021/05/06 05:59:43;;;;;;;9.53;1.93;;;7.50;95.90;;;;;;4410539;32;20190;-73
2021/05/06 06:02:10;;;;;;;8.57;2.43;;;7.60;94.40;;;;;;4407961;32;20190;-73
2021/05/06 06:04:36;;;;;;;6.93;1.67;;;7.50;93.70;;;;;;4410466;32;20146;-72
2021/05/06 06:07:03;;;;;;;7.23;2.10;;;7.50;93.20;;;;;;4408906;32;20162;-74
2021/05/06 06:09:29;;;;;;;6.33;1.83;;;7.50;93.50;;;;;;4404399;32;20193;-74
2021/05/06 06:11:57;;;;;;;6.67;1.90;;;7.60;93.40;;;;;;4404616;32;20206;-74
2021/05/06 06:14:28;;;;;;;5.70;1.87;;;7.60;92.30;;;;;;4394896;32;20179;-73
2021/05/06 06:16:55;;;;;;;7.37;1.90;;;7.60;90.90;;;;;;4393439;32;20246;-72
2021/05/06 06:19:29;;;;;;;8.13;1.57;;;7.60;90.60;;;;;;4395091;32;20152;-74
2021/05/06 06:22:01;;;;;;;7.20;1.77;;;7.60;91.10;;;;;;4394854;32;20194;-69
2021/05/06 06:24:28;;;;;;;7.27;1.80;;;7.70;91.30;;;;;;4393956;32;20462;-70
2021/05/06 06:26:54;;;;;;;7.70;1.93;;;7.70;90.10;;;;;;4393122;32;20162;-71
2021/05/06 06:29:27;;;;;;;4.77;1.80;;;7.70;89.00;;;;;;4395036;32;20187;-70
2021/05/06 06:31:53;;;;;;;6.97;2.27;;;7.70;90.00;;;;;;4394865;32;20205;-70
2021/05/06 06:34:20;;;;;;;5.97;1.90;;;7.80;89.90;;;;;;4393545;32;20143;-70
2021/05/06 06:36:46;;;;;;;8.37;1.80;;;7.90;89.90;;;;;;4394186;32;20449;-69
2021/05/06 06:39:16;;;;;;;4.47;1.73;;;8.10;89.90;;;;;;4387184;32;20163;-70
2021/05/06 06:41:44;;;;;;;4.57;1.90;;;8.20;88.40;;;;;;4395188;32;20144;-69
2021/05/06 06:44:13;;;;;;;7.07;1.90;;;8.30;86.30;;;;;;4394790;32;20150;-68
2021/05/06 06:46:40;;;;;;;8.17;1.80;;;8.30;85.00;;;;;;4394796;32;20154;-70
2021/05/06 06:49:10;;;;;;;4.23;2.07;;;8.30;85.10;;;;;;4394460;32;20152;-70
2021/05/06 06:51:37;;;;;;;6.43;2.20;;;8.20;86.00;;;;;;4394819;32;20197;-71
2021/05/06 06:54:06;;;;;;;5.97;1.90;;;8.30;87.10;;;;;;4396112;32;20167;-70
2021/05/06 06:56:33;;;;;;;6.10;2.10;;;8.50;87.10;;;;;;4397357;32;20170;-70
2021/05/06 06:58:59;;;;;;;6.87;2.03;;;8.50;86.10;;;;;;4397069;32;20174;-71
2021/05/06 07:01:26;;;;;;;6.07;2.03;;;8.60;87.60;;;;;;4397488;32;20177;-71
2021/05/06 07:03:52;;;;;;;5.27;2.00;;;8.70;87.50;;;;;;4396360;32;20167;-69
2021/05/06 07:06:19;;;;;;;4.20;2.03;;;8.80;86.90;;;;;;4397406;32;20385;-70
2021/05/06 07:08:47;;;;;;;7.17;2.30;;;8.80;86.50;;;;;;4396283;32;20148;-70
2021/05/06 07:11:13;;;;;;;5.10;1.90;;;8.70;85.10;;;;;;4397465;32;20154;-68
2021/05/06 07:13:40;;;;;;;6.10;1.80;;;8.70;83.90;;;;;;4395953;32;20156;-69
2021/05/06 07:16:08;;;;;;;4.30;1.60;;;8.70;83.50;;;;;;4400373;32;20169;-68
2021/05/06 07:18:35;;;;;;;3.87;2.00;;;8.80;81.40;;;;;;4410825;32;20523;-71
2021/05/06 07:21:04;;;;;;;4.30;2.10;;;8.80;81.80;;;;;;4410342;32;20160;-70
2021/05/06 07:23:32;;;;;;;6.93;2.13;;;8.80;81.60;;;;;;4412459;32;20250;-70
2021/05/06 07:26:03;;;;;;;4.87;1.73;;;8.80;81.70;;;;;;4411264;32;20476;-69
2021/05/06 07:28:34;;;;;;;8.17;2.13;;;8.80;82.00;;;;;;4410214;32;20471;-69
2021/05/06 07:31:07;;;;;;;2.33;1.50;;;8.80;81.60;;;;;;4411852;32;20177;-69
2021/05/06 07:33:36;;;;;;;5.47;1.83;;;8.80;78.10;;;;;;4411272;32;20144;-70
2021/05/06 07:36:09;;;;;;;4.60;2.03;;;8.90;78.40;;;;;;4411048;32;20177;-68
2021/05/06 07:38:38;;;;;;;4.20;1.73;;;9.00;77.30;;;;;;4412301;32;20199;-71
2021/05/06 07:41:11;;;;;;;4.07;1.63;;;9.10;76.90;;;;;;4411367;32;20155;-69
2021/05/06 07:43:43;;;;;;;5.37;1.57;;;9.10;76.50;;;;;;4412107;32;20196;-69
2021/05/06 07:46:13;;;;;;;4.70;1.80;;;9.20;75.60;;;;;;4411631;32;20212;-70
2021/05/06 07:48:46;;;;;;;5.17;1.67;;;9.30;76.80;;;;;;4410914;32;20201;-70
2021/05/06 07:51:16;;;;;;;5.87;1.60;;;9.40;77.10;;;;;;4409620;32;20205;-69
2021/05/06 07:53:49;;;;;;;5.30;1.50;;;9.40;74.80;;;;;;4411986;32;20267;-68
2021/05/06 07:56:20;;;;;;;3.40;1.40;;;9.40;73.90;;;;;;4410963;32;20154;-70
2021/05/06 07:58:47;;;;;;;3.43;1.33;;;9.30;70.80;;;;;;4410221;32;20190;-70
2021/05/06 08:01:14;;;;;;;4.43;1.60;;;9.30;69.80;;;;;;4410630;32;20142;-68
2021/05/06 08:03:40;;;;;;;5.37;1.70;;;9.30;69.90;;;;;;4410532;32;20531;-68
2021/05/06 08:06:07;;;;;;;3.47;1.50;;;9.50;72.80;;;;;;4412017;32;20195;-69
2021/05/06 08:08:34;;;;;;;3.47;1.80;;;9.80;71.70;;;;;;4409930;32;20194;-66
2021/05/06 08:11:02;;;;;;;4.40;1.60;;;10.40;67.20;;;;;;4410313;32;20272;-69
2021/05/06 08:13:29;;;;;;;4.73;1.30;;;11.00;62.40;;;;;;4410108;32;20166;-71
2021/05/06 08:15:57;;;;;;;3.00;1.47;;;11.60;61.40;;;;;;4410263;32;20143;-68
2021/05/06 08:18:24;;;;;;;4.50;1.20;;;12.00;59.50;;;;;;4410096;32;20200;-68
2021/05/06 08:20:51;;;;;;;4.07;1.50;;;11.90;58.10;;;;;;4410124;32;20178;-70
2021/05/06 08:23:20;;;;;;;6.13;1.40;;;11.80;57.80;;;;;;4409622;32;20166;-67
2021/05/06 08:25:47;;;;;;;5.37;1.70;;;12.10;57.40;;;;;;4411598;32;20135;-69
2021/05/06 08:28:14;;;;;;;5.43;1.60;;;12.10;58.60;;;;;;4410166;32;20166;-70
2021/05/06 08:30:43;;;;;;;4.77;1.50;;;12.50;58.60;;;;;;4410446;32;20272;-69
2021/05/06 08:33:11;;;;;;;3.80;1.20;;;12.80;56.40;;;;;;4409436;32;20215;-69
2021/05/06 08:35:38;;;;;;;7.40;1.57;;;12.60;56.90;;;;;;4409670;32;20428;-69
2021/05/06 08:38:05;;;;;;;5.30;1.43;;;12.60;57.40;;;;;;4409671;32;20208;-68
2021/05/06 08:40:32;;;;;;;2.77;1.33;;;12.60;57.30;;;;;;4408908;32;20190;-69
2021/05/06 08:43:10;;;;;;;4.30;1.83;;;12.80;56.00;;;;;;4412292;32;20173;-69
2021/05/06 08:45:43;;;;;;;9.00;1.60;;;12.40;56.30;;;;;;4415261;32;20220;-68
2021/05/06 08:48:11;;;;;;;7.47;1.53;;;12.60;57.40;;;;;;4421278;32;20492;-70
2021/05/06 08:50:39;;;;;;;4.97;1.57;;;12.70;55.40;;;;;;4409451;32;20151;-70
2021/05/06 08:53:07;;;;;;;3.43;1.40;;;12.50;54.80;;;;;;4409569;32;20144;-69
2021/05/06 08:55:34;;;;;;;5.03;1.47;;;12.60;54.90;;;;;;4409852;32;20147;-69
2021/05/06 08:58:01;;;;;;;3.30;1.47;;;12.60;53.20;;;;;;4409137;32;20550;-70
2021/05/06 09:00:27;;;;;;;3.60;1.40;;;12.80;55.00;;;;;;4410510;32;20453;-68
2021/05/06 09:02:54;;;;;;;4.77;1.50;;;12.80;53.80;;;;;;4409493;32;20190;-70
2021/05/06 09:05:22;;;;;;;4.03;1.60;;;12.20;54.50;;;;;;4410354;32;20437;-69
2021/05/06 09:07:49;;;;;;;4.40;1.53;;;12.00;55.60;;;;;;4409506;32;20481;-69
2021/05/06 09:10:35;;;;;;;3.87;1.63;;;11.90;56.90;;;;;;4409531;32;20168;-70
2021/05/06 09:13:03;;;;;;;3.30;1.60;;;12.10;56.70;;;;;;4409509;32;20463;-70
2021/05/06 09:15:30;;;;;;;3.63;1.97;;;12.20;55.90;;;;;;4410511;32;20166;-70
2021/05/06 09:17:57;;;;;;;4.70;1.83;;;12.10;56.90;;;;;;4409300;32;20437;-70
2021/05/06 09:20:25;;;;;;;3.57;1.40;;;12.10;55.50;;;;;;4409296;32;20146;-70
2021/05/06 09:22:57;;;;;;;3.63;1.60;;;12.10;54.50;;;;;;4410218;32;20190;-70
2021/05/06 09:25:32;;;;;;;3.10;1.40;;;12.00;55.40;;;;;;4410502;32;20140;-68
2021/05/06 09:28:16;;;;;;;4.60;1.40;;;12.30;55.30;;;;;;4409211;32;20188;-69
2021/05/06 09:31:06;;;;;;;6.43;1.70;;;12.10;54.80;;;;;;4409349;32;20155;-69
2021/05/06 09:33:38;;;;;;;2.60;1.40;;;12.10;54.50;;;;;;4410201;32;20527;-68
2021/05/06 09:36:26;;;;;;;5.47;1.50;;;12.20;54.60;;;;;;4411744;32;20170;-72
2021/05/06 09:38:55;;;;;;;6.50;1.50;;;12.60;55.10;;;;;;4410568;32;20140;-70
2021/05/06 09:41:23;;;;;;;3.13;1.50;;;12.70;54.30;;;;;;4409095;32;20249;-70
2021/05/06 09:43:51;;;;;;;5.27;1.60;;;13.10;53.60;;;;;;4410429;32;20143;-69
2021/05/06 09:46:43;;;;;;;4.53;1.43;;;13.20;53.70;;;;;;4408931;32;20159;-69
2021/05/06 09:49:13;;;;;;;6.37;1.73;;;13.60;52.70;;;;;;4409699;32;20150;-70
2021/05/06 09:51:46;;;;;;;4.23;1.80;;;13.60;51.50;;;;;;4408950;32;20161;-70
2021/05/06 09:54:23;;;;;;;7.17;1.73;;;13.80;52.80;;;;;;4410394;32;20151;-69
2021/05/06 09:56:57;;;;;;;4.43;1.80;;;13.90;52.00;;;;;;4407589;32;20191;-69
2021/05/06 09:59:33;;;;;;;3.80;1.60;;;14.00;52.90;;;;;;4410425;32;20174;-69
2021/05/06 10:02:18;;;;;;;4.20;1.63;;;14.50;52.30;;;;;;4409203;32;20495;-69
2021/05/06 10:04:47;;;;;;;5.37;1.97;;;14.80;51.30;;;;;;4410339;32;20146;-69
2021/05/06 10:07:22;;;;;;;4.00;1.70;;;14.90;51.10;;;;;;4408657;32;20457;-70
2021/05/06 10:10:11;;;;;;;6.57;1.90;;;15.20;50.60;;;;;;4410644;32;20205;-72
2021/05/06 10:12:38;;;;;;;6.43;1.97;;;15.20;49.10;;;;;;4394572;32;20170;-71
2021/05/06 10:15:08;;;;;;;6.03;1.80;;;15.00;50.00;;;;;;4408211;32;20469;-70
2021/05/06 10:17:36;;;;;;;3.47;1.90;;;14.70;49.80;;;;;;4408649;32;20163;-71
2021/05/06 10:20:05;;;;;;;5.53;1.77;;;15.00;50.80;;;;;;4409015;32;20143;-70
2021/05/06 10:22:31;;;;;;;4.30;1.70;;;15.40;50.40;;;;;;4409639;32;20480;-70
2021/05/06 10:25:02;;;;;;;4.17;1.60;;;15.30;46.80;;;;;;4409942;32;20170;-70
2021/05/06 10:27:29;;;;;;;3.90;1.60;;;15.10;46.40;;;;;;4408525;32;20139;-71
2021/05/06 10:29:56;;;;;;;3.73;1.70;;;14.50;48.20;;;;;;4410862;32;20143;-71
2021/05/06 10:32:26;;;;;;;6.03;1.70;;;15.00;48.60;;;;;;4412896;32;20192;-69
2021/05/06 10:34:56;;;;;;;3.90;1.57;;;15.30;47.10;;;;;;4411766;32;20151;-70
2021/05/06 10:37:42;;;;;;;2.70;1.70;;;15.20;46.50;;;;;;4411698;32;20201;-70
2021/05/06 10:40:20;;;;;;;3.87;1.67;;;15.40;47.50;;;;;;4411608;32;20406;-68
2021/05/06 10:42:51;;;;;;;4.70;1.80;;;15.80;46.80;;;;;;4411923;32;20506;-69
2021/05/06 10:45:21;;;;;;;4.43;1.60;;;15.60;46.30;;;;;;4411824;32;20140;-69
2021/05/06 10:47:53;;;;;;;4.70;1.77;;;15.80;46.20;;;;;;4412829;32;20170;-70
2021/05/06 10:50:40;;;;;;;2.37;1.40;;;15.90;45.00;;;;;;4411284;32;20147;-70
2021/05/06 10:53:08;;;;;;;3.37;1.50;;;16.30;44.10;;;;;;4411498;32;20139;-70
2021/05/06 10:55:41;;;;;;;4.50;1.40;;;16.30;43.20;;;;;;4411611;32;20168;-70
2021/05/06 10:58:26;;;;;;;4.17;1.83;;;16.30;43.80;;;;;;4411224;32;20336;-70
2021/05/06 11:01:13;;;;;;;4.87;1.70;;;16.60;44.50;;;;;;4411329;32;20458;-71
2021/05/06 11:03:41;;;;;;;5.87;1.70;;;16.80;43.00;;;;;;4412724;32;20147;-70
2021/05/06 11:06:35;;;;;;;3.40;2.10;;;16.20;44.20;;;;;;4411123;32;20147;-70
2021/05/06 11:09:02;;;;;;;3.50;1.53;;;15.80;44.70;;;;;;4411119;32;20228;-70
2021/05/06 11:11:28;;;;;;;6.13;1.70;;;16.00;45.30;;;;;;4412542;32;20178;-70
2021/05/06 11:14:10;;;;;;;4.20;1.57;;;15.20;44.30;;;;;;4411129;32;20170;-69
2021/05/06 11:16:38;;;;;;;4.03;1.60;;;15.70;45.60;;;;;;4410861;32;20168;-70
2021/05/06 11:19:05;;;;;;;4.40;1.60;;;16.00;44.00;;;;;;4412697;32;20143;-71
2021/05/06 11:21:34;;;;;;;5.33;1.70;;;16.40;41.70;;;;;;4410010;32;20162;-71
2021/05/06 11:24:17;;;;;;;3.53;1.50;;;16.30;41.90;;;;;;4394857;32;20514;-70
2021/05/06 11:27:10;;;;;;;5.23;1.60;;;16.10;42.60;;;;;;4411650;32;20163;-70
2021/05/06 11:29:39;;;;;;;4.17;1.77;;;15.70;43.20;;;;;;4411612;32;20198;-69
2021/05/06 11:32:22;;;;;;;2.97;1.70;;;15.50;43.80;;;;;;4411284;32;20163;-70
2021/05/06 11:34:50;;;;;;;3.97;1.50;;;15.70;45.30;;;;;;4411062;32;20135;-70
2021/05/06 11:37:20;;;;;;;3.03;1.60;;;16.30;42.60;;;;;;4411568;32;20220;-69
2021/05/06 11:39:57;;;;;;;6.03;1.90;;;16.90;41.40;;;;;;4410211;32;20175;-70
2021/05/06 11:42:25;;;;;;;3.80;1.80;;;16.90;41.20;;;;;;4410602;32;20535;-70
2021/05/06 11:45:29;;;;;;;4.47;1.70;;;16.60;42.30;;;;;;4414802;32;20240;-70
2021/05/06 11:47:59;;;;;;;7.37;1.80;;;15.70;43.10;;;;;;4364700;32;20167;-69
2021/05/06 11:50:28;;;;;;;5.37;1.67;;;15.00;44.50;;;;;;4363532;32;20224;-71
2021/05/06 11:52:56;;;;;;;2.50;1.50;;;15.10;45.80;;;;;;4363090;32;20148;-70
2021/05/06 11:55:29;;;;;;;3.13;1.50;;;15.30;41.40;;;;;;4363092;32;20164;-69
2021/05/06 11:57:55;;;;;;;4.93;1.50;;;15.90;40.80;;;;;;4363204;32;20190;-72
2021/05/06 12:00:30;;;;;;;5.57;1.97;;;16.20;40.60;;;;;;4363849;32;20183;-70
2021/05/06 12:02:58;;;;;;;4.03;1.70;;;16.60;41.10;;;;;;4364612;32;20163;-69
2021/05/06 12:06:03;;;;;;;3.63;1.60;;;16.50;39.40;;;;;;4363879;32;20171;-71
2021/05/06 12:08:33;;;;;;;2.53;1.50;;;16.80;39.20;;;;;;4364198;32;20179;-71
2021/05/06 12:11:13;;;;;;;5.50;1.53;;;17.10;37.60;;;;;;4362614;32;20483;-71
2021/05/06 12:13:51;;;;;;;3.93;1.53;;;17.60;35.40;;;;;;4361977;32;20250;-70
2021/05/06 12:16:26;;;;;;;2.93;1.57;;;17.90;36.20;;;;;;4363051;32;20152;-70
2021/05/06 12:18:59;;;;;;;4.57;1.63;;;18.90;36.30;;;;;;4362197;32;20156;-70
2021/05/06 12:21:51;;;;;;;5.10;1.63;;;19.10;36.00;;;;;;4376937;32;20508;-71
2021/05/06 12:24:35;;;;;;;2.00;1.60;;;19.10;36.00;;;;;;4411137;32;20171;-70
2021/05/06 12:27:21;;;;;;;4.97;1.73;;;18.90;34.60;;;;;;4410448;32;20150;-72
2021/05/06 12:29:50;;;;;;;2.77;1.60;;;18.20;36.70;;;;;;4419034;32;20155;-70
2021/05/06 12:32:17;;;;;;;4.70;1.70;;;18.00;36.90;;;;;;4410091;32;20209;-70
2021/05/06 12:34:45;;;;;;;3.33;2.00;;;17.40;38.10;;;;;;4409539;32;20178;-70
2021/05/06 12:37:15;;;;;;;2.57;1.80;;;16.90;39.60;;;;;;4409913;32;20357;-70
2021/05/06 12:39:42;;;;;;;3.53;1.70;;;16.50;42.20;;;;;;4409486;32;20428;-71
2021/05/06 12:42:09;;;;;;;4.30;1.90;;;16.70;42.40;;;;;;4409624;32;20185;-71
2021/05/06 12:44:40;;;;;;;3.30;1.83;;;17.00;42.20;;;;;;4410266;32;20213;-70
2021/05/06 12:47:16;;;;;;;3.20;1.90;;;17.40;41.20;;;;;;4409410;32;20151;-71
2021/05/06 12:49:44;;;;;;;2.20;1.60;;;17.70;40.00;;;;;;4409464;32;20170;-70
2021/05/06 12:52:29;;;;;;;4.83;2.07;;;18.20;39.50;;;;;;4409346;32;20606;-70
2021/05/06 12:54:56;;;;;;;3.13;1.80;;;17.80;39.80;;;;;;4409366;32;20189;-71
2021/05/06 12:57:23;;;;;;;4.37;1.63;;;18.10;39.50;;;;;;4409447;32;20163;-72
2021/05/06 12:59:49;;;;;;;3.67;1.50;;;18.90;38.90;;;;;;4394805;32;20171;-72
2021/05/06 13:02:18;;;;;;;3.97;1.70;;;19.30;38.80;;;;;;4409071;32;20200;-70
2021/05/06 13:04:51;;;;;;;4.30;1.40;;;20.10;36.90;;;;;;4409999;32;20143;-71
2021/05/06 13:07:19;;;;;;;2.93;1.60;;;19.70;36.30;;;;;;4410977;32;20188;-70
2021/05/06 13:09:50;;;;;;;3.87;1.63;;;19.50;35.30;;;;;;4411150;32;20159;-71
2021/05/06 13:12:17;;;;;;;4.67;1.80;;;19.20;35.70;;;;;;4410527;32;20147;-72
2021/05/06 13:14:46;;;;;;;2.73;1.70;;;19.70;35.70;;;;;;4413075;32;20213;-70
2021/05/06 13:17:45;;;;;;;3.07;1.50;;;19.10;36.40;;;;;;4404217;32;20193;-71
2021/05/06 13:20:28;;;;;;;3.53;1.73;;;17.90;37.70;;;;;;4359658;32;20227;-70
2021/05/06 13:23:29;;;;;;;3.23;1.50;;;16.40;40.80;;;;;;4348785;33;20153;-70
2021/05/06 13:25:57;;;;;;;3.20;1.80;;;15.40;43.30;;;;;;4303766;33;20160;-70
2021/05/06 13:28:34;;;;;;;3.00;1.70;;;15.10;43.60;;;;;;4304783;33;20212;-70
2021/05/06 13:31:07;;;;;;;3.67;1.67;;;15.00;44.60;;;;;;4304702;33;20173;-71
2021/05/06 13:33:34;;;;;;;3.47;1.80;;;14.40;45.90;;;;;;4303342;33;20146;-70
2021/05/06 13:36:09;;;;;;;3.57;1.70;;;14.20;46.80;;;;;;4303176;33;20224;-70
2021/05/06 13:38:45;;;;;;;4.07;1.70;;;13.90;48.00;;;;;;4304458;33;20157;-70
2021/05/06 13:41:13;;;;;;;3.70;2.27;;;13.40;51.80;;;;;;4304412;33;20153;-70
2021/05/06 13:43:40;;;;;;;3.67;2.00;;;12.40;60.30;;;;;;4303501;33;20154;-71
2021/05/06 13:46:14;;;;;;;4.23;2.07;;;11.70;64.90;;;;;;4303000;33;20161;-70
2021/05/06 13:48:41;;;;;;;3.80;2.33;;;11.30;66.60;;;;;;4302697;33;20419;-70
2021/05/06 13:51:09;;;;;;;2.97;2.10;;;11.20;69.70;;;;;;4300985;33;20197;-72
2021/05/06 13:53:37;;;;;;;4.20;2.00;;;11.10;68.50;;;;;;4301445;33;20161;-70
2021/05/06 13:56:04;;;;;;;2.80;1.90;;;11.20;65.80;;;;;;4334957;33;20218;-70
2021/05/06 13:58:33;;;;;;;3.97;1.83;;;11.60;65.50;;;;;;4361843;33;20185;-71
2021/05/06 14:01:02;;;;;;;4.63;2.30;;;12.70;65.40;;;;;;4350451;33;20168;-75
2021/05/06 14:03:28;;;;;;;1.90;1.70;;;14.10;57.30;;;;;;4410787;32;20180;-75
2021/05/06 14:05:55;;;;;;;3.40;1.80;;;15.00;54.10;;;;;;4413203;32;20227;-74
2021/05/06 14:08:22;;;;;;;4.00;1.70;;;15.70;52.10;;;;;;4407222;32;20221;-77
2021/05/06 14:10:48;;;;;;;2.73;1.70;;;16.20;50.00;;;;;;4411917;32;20225;-76
2021/05/06 14:13:17;;;;;;;3.03;1.67;;;17.00;49.80;;;;;;4410484;32;20880;-79
2021/05/06 14:15:47;;;;;;;2.53;1.70;;;17.40;47.80;;;;;;4411030;32;20554;-75
2021/05/06 14:18:14;;;;;;;5.27;1.93;;;18.00;46.30;;;;;;4423105;32;20174;-76
2021/05/06 14:20:41;;;;;;;3.73;2.00;;;17.30;46.20;;;;;;4422997;32;20201;-76
2021/05/06 14:23:08;;;;;;;4.17;1.90;;;17.20;47.00;;;;;;4423521;32;20163;-76
2021/05/06 14:25:36;;;;;;;4.23;1.90;;;16.90;47.20;;;;;;4423549;32;20453;-74
2021/05/06 14:28:04;;;;;;;2.70;1.60;;;17.40;46.80;;;;;;4423710;32;20174;-75
2021/05/06 14:30:31;;;;;;;3.93;1.70;;;16.50;48.00;;;;;;4419359;32;20252;-73
2021/05/06 14:32:58;;;;;;;3.53;2.10;;;15.00;50.30;;;;;;4416958;32;20223;-69
2021/05/06 14:35:25;;;;;;;4.43;1.90;;;14.80;50.50;;;;;;4410718;32;20414;-69
2021/05/06 14:37:53;;;;;;;3.10;1.70;;;14.00;50.30;;;;;;4419673;32;20170;-71
2021/05/06 14:40:20;;;;;;;3.20;1.90;;;14.10;51.60;;;;;;4425027;32;20169;-70
2021/05/06 14:42:47;;;;;;;4.30;1.80;;;14.30;51.60;;;;;;4411806;32;20174;-70
2021/05/06 14:45:14;;;;;;;4.80;1.90;;;14.30;51.40;;;;;;4410662;32;20200;-70
2021/05/06 14:47:41;;;;;;;5.87;1.60;;;14.40;50.50;;;;;;4410949;32;20174;-70
2021/05/06 14:50:10;;;;;;;2.27;1.60;;;14.70;48.90;;;;;;4411314;32;20213;-67
2021/05/06 14:52:37;;;;;;;4.73;1.70;;;15.40;47.70;;;;;;4411847;32;20366;-67
2021/05/06 14:55:07;;;;;;;3.97;1.80;;;16.10;47.00;;;;;;4411382;32;20143;-69
2021/05/06 14:57:38;;;;;;;2.60;1.60;;;16.10;48.40;;;;;;4397465;32;20171;-68
2021/05/06 15:00:06;;;;;;;4.27;2.03;;;17.00;46.60;;;;;;4409924;32;20205;-69
2021/05/06 15:02:34;;;;;;;2.73;1.43;;;17.30;44.60;;;;;;4410105;32;20205;-70
2021/05/06 15:05:02;;;;;;;2.20;1.80;;;17.40;43.00;;;;;;4411174;32;20238;-70
2021/05/06 15:07:28;;;;;;;1.90;1.40;;;17.30;42.60;;;;;;4412710;32;20142;-71
2021/05/06 15:09:54;;;;;;;4.40;1.90;;;17.80;42.00;;;;;;4411061;32;20242;-69
2021/05/06 15:12:21;;;;;;;3.30;1.77;;;18.30;39.70;;;;;;4410710;32;20159;-68
2021/05/06 15:14:47;;;;;;;2.37;1.70;;;17.70;40.50;;;;;;4411351;32;20160;-68
2021/05/06 15:17:14;;;;;;;1.73;1.53;;;16.60;42.20;;;;;;4410313;32;20410;-69
2021/05/06 15:19:41;;;;;;;2.70;1.60;;;16.40;43.70;;;;;;4410614;32;20155;-68
2021/05/06 15:22:07;;;;;;;1.80;1.60;;;16.70;42.50;;;;;;4410777;32;20151;-68
2021/05/06 15:24:46;;;;;;;2.10;1.47;;;16.70;42.90;;;;;;4410345;32;20193;-70
2021/05/06 15:27:13;;;;;;;4.17;1.80;;;17.50;41.90;;;;;;4417447;32;20170;-70
2021/05/06 15:29:41;;;;;;;1.90;1.50;;;17.00;41.60;;;;;;4417221;32;20440;-70
2021/05/06 15:32:07;;;;;;;4.37;1.77;;;17.00;41.30;;;;;;4423984;32;20181;-70
2021/05/06 15:34:34;;;;;;;2.40;1.70;;;16.60;42.70;;;;;;4425578;32;20228;-70
2021/05/06 15:37:03;;;;;;;3.47;1.70;;;17.20;42.10;;;;;;4425458;32;20150;-70
2021/05/06 15:39:30;;;;;;;3.17;1.83;;;17.00;41.40;;;;;;4425500;32;20170;-70
2021/05/06 15:41:56;;;;;;;2.07;1.70;;;16.30;42.90;;;;;;4426761;32;20169;-69
2021/05/06 15:44:25;;;;;;;2.73;1.70;;;15.10;45.20;;;;;;4411344;32;20175;-70
2021/05/06 15:46:58;;;;;;;4.13;2.00;;;15.00;46.50;;;;;;4426891;32;20173;-70
2021/05/06 15:49:37;;;;;;;6.43;2.33;;;14.90;47.30;;;;;;4425523;32;20151;-71
2021/05/06 15:52:04;;;;;;;2.73;1.90;;;14.70;49.30;;;;;;4426544;32;20173;-70
2021/05/06 15:54:31;;;;;;;3.83;1.87;;;14.50;49.70;;;;;;4425238;32;20152;-69
2021/05/06 15:56:57;;;;;;;2.73;1.80;;;14.40;50.00;;;;;;4426735;32;20416;-70
2021/05/06 15:59:25;;;;;;;2.97;1.83;;;14.30;50.50;;;;;;4426245;32;20147;-70
2021/05/06 16:01:53;;;;;;;2.30;2.00;;;14.20;50.70;;;;;;4426246;32;20200;-70
2021/05/06 16:04:31;;;;;;;3.90;2.20;;;14.20;50.80;;;;;;4425237;32;20189;-70
2021/05/06 16:06:57;;;;;;;4.87;1.80;;;13.80;50.20;;;;;;4420890;32;20227;-71
2021/05/06 16:09:24;;;;;;;4.43;1.80;;;13.60;51.40;;;;;;4415029;32;20213;-70
2021/05/06 16:11:52;;;;;;;1.90;1.60;;;13.60;51.00;;;;;;4408526;32;20185;-69
2021/05/06 16:14:19;;;;;;;3.43;1.90;;;13.40;49.40;;;;;;4409060;32;20447;-70
2021/05/06 16:16:46;;;;;;;3.40;1.80;;;13.20;50.20;;;;;;4407953;32;20155;-70
2021/05/06 16:19:14;;;;;;;3.73;1.77;;;13.00;50.30;;;;;;4409326;32;20163;-70
2021/05/06 16:21:41;;;;;;;3.40;1.80;;;12.90;51.00;;;;;;4408551;32;20449;-70
2021/05/06 16:24:08;;;;;;;3.00;1.90;;;12.80;51.30;;;;;;4410306;32;20190;-70
2021/05/06 16:26:34;;;;;;;2.30;1.70;;;12.90;51.90;;;;;;4416198;32;20166;-72